»·PEaware :: DAL354 KSBP-KPHX

DAL354 :: KSBP-KPHX

FLIGHT INFORMATION

Flight Status: Arrived
Operator:
Delta Air Lines
More flights by this operator :: More flights under this callsign
Pilot: Sergei F. (8485)
Aircraft: BOEING 737-300
(B733)
More flights by this aircraft type
Origin: KSBP San Luis Co Regl
United States
Destination: KPHX Phoenix Sky Harbor Intl
United States
More flights between these airports :: More routes between these airports
Route: +MQO FLW PMD J65 BLH HYDRR1
File this flight plan on PilotEdge
Remarks:
Altitude:
(Current/Filed)
360FL
Speed:
(Current/Filed)
300kts
Departed: 22-Sep-17 07:39 PM
Arrived: 22-Sep-17 08:57 PM
Distance/Time
Traveled:
442nm/1:18
Distance/Time
To Go:
Arrived

Flight Plot

Page will automatically refresh every two minutes.

Flight plan parsing failed; only flown route is shown


Map Options




Map Legend


Flown Route
Filed Route
Departure Airport
Arrival Airport
Navaid (VOR, NDB)
Fix

Horizontal Profiles

Position Reports

Time Latitude Longitude Heading Altitude Ground
Speed
22-Sep-17 19:18 35.238991 -120.641559 350 188ft 0kts
22-Sep-17 19:19 35.238991 -120.641559 350 188ft 0kts
22-Sep-17 19:20 35.238991 -120.641559 350 188ft 0kts
22-Sep-17 19:21 35.238991 -120.641559 350 188ft 0kts
22-Sep-17 19:22 35.238991 -120.641559 350 188ft 0kts
22-Sep-17 19:23 35.238991 -120.641559 350 188ft 0kts
22-Sep-17 19:24 35.238991 -120.641559 350 188ft 0kts
22-Sep-17 19:25 35.238991 -120.641559 350 188ft 0kts
22-Sep-17 19:26 35.238991 -120.641559 350 188ft 0kts
22-Sep-17 19:27 35.238991 -120.641559 350 188ft 0kts
22-Sep-17 19:28 35.238991 -120.641559 350 188ft 0kts
22-Sep-17 19:29 35.238991 -120.641559 350 188ft 0kts
22-Sep-17 19:30 35.238991 -120.641559 350 188ft 0kts
22-Sep-17 19:31 35.238991 -120.641559 350 188ft 0kts
22-Sep-17 19:32 35.238991 -120.641559 350 188ft 0kts
22-Sep-17 19:33 35.238991 -120.641559 350 188ft 0kts
22-Sep-17 19:34 35.238991 -120.641559 350 188ft 0kts
22-Sep-17 19:35 35.238991 -120.641559 350 188ft 0kts
22-Sep-17 19:36 35.238991 -120.641559 350 188ft 0kts
22-Sep-17 19:37 35.238558 -120.641471 350 188ft 0kts
22-Sep-17 19:38 35.238556 -120.641471 122 188ft 0kts
22-Sep-17 19:39 35.237713 -120.639777 123 195ft 13kts
22-Sep-17 19:40 35.235140 -120.635245 124 213ft 16kts
22-Sep-17 19:41 35.232838 -120.632983 275 214ft 11kts
22-Sep-17 19:42 35.233217 -120.633796 305 213ft 33kts
22-Sep-17 19:43 35.254151 -120.673626 304 2325ft 171kts
22-Sep-17 19:44 35.281223 -120.725770 305 5040ft 214kts
22-Sep-17 19:45 35.313597 -120.787171 304 5033ft 215kts
22-Sep-17 19:46 35.346362 -120.848722 313 5006ft 221kts
22-Sep-17 19:47 35.391304 -120.828123 86 8212ft 230kts
22-Sep-17 19:48 35.368176 -120.744011 109 10380ft 294kts
22-Sep-17 19:49 35.337174 -120.645717 109 12888ft 346kts
22-Sep-17 19:50 35.302875 -120.534473 109 16069ft 365kts
22-Sep-17 19:51 35.266263 -120.416322 109 19033ft 382kts
22-Sep-17 19:52 35.230762 -120.302099 109 21449ft 399kts
22-Sep-17 19:53 35.190708 -120.173791 109 23422ft 425kts
22-Sep-17 19:54 35.146535 -120.033073 109 24497ft 465kts
22-Sep-17 19:55 35.106427 -119.881574 107 26165ft 476kts
22-Sep-17 19:56 35.065699 -119.730060 107 28126ft 472kts
22-Sep-17 19:57 35.025039 -119.579738 107 30021ft 468kts
22-Sep-17 19:58 34.984359 -119.430158 107 27790ft 484kts
22-Sep-17 19:59 34.944996 -119.286121 107 27088ft 473kts
22-Sep-17 20:00 34.903183 -119.133972 107 27007ft 479kts
22-Sep-17 20:01 34.865771 -118.999411 107 27001ft 480kts
22-Sep-17 20:02 34.825302 -118.854242 107 27005ft 479kts
22-Sep-17 20:03 34.783943 -118.706250 107 27001ft 480kts
22-Sep-17 20:04 34.742345 -118.558187 107 27002ft 480kts
22-Sep-17 20:05 34.699500 -118.406504 107 27002ft 480kts
22-Sep-17 20:06 34.659130 -118.264150 108 27003ft 480kts
22-Sep-17 20:07 34.617613 -118.118655 108 27003ft 479kts
22-Sep-17 20:08 34.574613 -117.968774 108 27005ft 480kts
22-Sep-17 20:09 34.531326 -117.818702 108 27002ft 480kts
22-Sep-17 20:10 34.488046 -117.669428 108 27002ft 481kts
22-Sep-17 20:11 34.444186 -117.518949 108 27009ft 479kts
22-Sep-17 20:12 34.401454 -117.373101 108 27003ft 479kts
22-Sep-17 20:13 34.358166 -117.225905 108 27004ft 480kts
22-Sep-17 20:14 34.313314 -117.074366 108 27005ft 480kts
22-Sep-17 20:15 34.268169 -116.922655 108 27001ft 480kts
22-Sep-17 20:16 34.222175 -116.769053 114 26828ft 512kts
22-Sep-17 20:17 34.174158 -116.609183 114 26831ft 500kts
22-Sep-17 20:18 34.127117 -116.453617 114 26855ft 487kts
22-Sep-17 20:19 34.081213 -116.302506 114 26822ft 484kts
22-Sep-17 20:20 34.034768 -116.150355 114 26871ft 485kts
22-Sep-17 20:21 33.988400 -115.999355 114 26835ft 485kts
22-Sep-17 20:22 33.941564 -115.847603 114 26793ft 485kts
22-Sep-17 20:23 33.895503 -115.699161 115 26753ft 485kts
22-Sep-17 20:24 33.848361 -115.548658 114 26764ft 485kts
22-Sep-17 20:25 33.801094 -115.397793 114 26765ft 485kts
22-Sep-17 20:26 33.754172 -115.248491 115 26769ft 485kts
22-Sep-17 20:27 33.706643 -115.098239 117 26777ft 483kts
22-Sep-17 20:28 33.659619 -114.950289 119 26775ft 471kts
22-Sep-17 20:29 33.612986 -114.804406 119 26776ft 472kts
22-Sep-17 20:30 33.575040 -114.653142 110 25653ft 474kts
22-Sep-17 20:31 33.545986 -114.503067 110 24755ft 463kts
22-Sep-17 20:32 33.516725 -114.353356 110 24773ft 465kts
22-Sep-17 20:33 33.487762 -114.205786 111 24774ft 464kts
22-Sep-17 20:34 33.457855 -114.057179 111 24773ft 464kts
22-Sep-17 20:35 33.428623 -113.911024 111 24803ft 426kts
22-Sep-17 20:36 33.402157 -113.779691 111 24036ft 407kts
22-Sep-17 20:37 33.375948 -113.649719 110 22115ft 401kts
22-Sep-17 20:38 33.349555 -113.519689 110 21767ft 411kts
22-Sep-17 20:39 33.324572 -113.386855 108 21786ft 413kts
22-Sep-17 20:40 33.301889 -113.255130 108 21780ft 413kts
22-Sep-17 20:41 33.281979 -113.121979 105 19872ft 403kts
22-Sep-17 20:42 33.276204 -112.992421 93 17793ft 382kts
22-Sep-17 20:43 33.279508 -112.870230 94 16919ft 357kts
22-Sep-17 20:44 33.286678 -112.756910 90 15322ft 328kts
22-Sep-17 20:45 33.296812 -112.650008 89 13940ft 320kts
22-Sep-17 20:46 33.306546 -112.546128 89 12552ft 312kts
22-Sep-17 20:47 33.315974 -112.444532 88 11172ft 307kts
22-Sep-17 20:48 33.325103 -112.344615 89 10970ft 309kts
22-Sep-17 20:49 33.334260 -112.242570 88 9097ft 296kts
22-Sep-17 20:50 33.342385 -112.153275 88 9020ft 262kts
22-Sep-17 20:51 33.347643 -112.068224 95 8531ft 265kts
22-Sep-17 20:52 33.346379 -111.981703 94 6988ft 254kts
22-Sep-17 20:53 33.345849 -111.899516 91 5257ft 259kts
22-Sep-17 20:54 33.349287 -111.819776 59 3993ft 223kts
22-Sep-17 20:55 33.397112 -111.808439 350 4025ft 184kts
22-Sep-17 20:56 33.438519 -111.827681 291 3745ft 155kts
22-Sep-17 20:57 33.440287 -111.874522 271 2896ft 137kts
22-Sep-17 20:58 33.440403 -111.917756 269 2338ft 135kts
22-Sep-17 20:59 33.440720 -111.959492 269 1661ft 126kts
22-Sep-17 21:00 33.440830 -112.000293 269 1133ft 104kts
22-Sep-17 21:01 33.439995 -112.007302 133 1129ft 0kts
22-Sep-17 21:02 33.439042 -112.003672 89 1129ft 20kts
22-Sep-17 21:03 33.439038 -111.998185 89 1132ft 14kts
22-Sep-17 21:04 33.439019 -111.995874 132 1134ft 1kts
22-Sep-17 21:05 33.437853 -111.996259 269 1131ft 0kts
22-Sep-17 21:06 33.437853 -111.996259 269 1131ft 0kts

Navigation Log

Ident Type
Flight plan parsing failed, navigation log unavailable